createdAt,value
2024-04-25T00:00:17.215Z,97115.00
2024-04-25T00:04:09.634Z,97100.31
2024-04-25T00:07:15.986Z,97095.53
2024-04-25T00:10:21.715Z,97096.66
2024-04-25T00:13:30.528Z,97095.28
2024-04-25T00:16:39.069Z,97101.72
2024-04-25T00:19:45.275Z,97094.91
2024-04-25T00:22:51.003Z,97091.38
2024-04-25T00:25:57.074Z,97098.69
2024-04-25T00:29:03.294Z,97087.50
2024-04-25T00:32:12.639Z,97097.34
2024-04-25T00:35:18.551Z,97088.22
2024-04-25T00:38:25.244Z,97090.03
2024-04-25T00:41:31.565Z,97091.06
2024-04-25T00:44:37.738Z,97089.22
2024-04-25T00:47:47.714Z,97081.47
2024-04-25T00:50:55.160Z,97096.31
2024-04-25T00:54:01.241Z,97095.16
2024-04-25T00:57:11.699Z,97103.16
2024-04-25T01:00:19.264Z,97101.66
2024-04-25T01:03:28.768Z,97097.66
2024-04-25T01:06:36.540Z,97105.88
2024-04-25T01:09:42.628Z,97096.84
2024-04-25T01:12:48.740Z,97089.22
2024-04-25T01:15:56.507Z,97090.47
2024-04-25T01:19:04.906Z,97086.75
2024-04-25T01:22:11.281Z,97084.03
2024-04-25T01:25:21.916Z,97083.25
2024-04-25T01:34:03.010Z,97079.59
2024-04-25T01:37:09.253Z,97078.38
2024-04-25T01:40:15.702Z,97086.28
2024-04-25T01:43:24.228Z,97090.59
2024-04-25T01:46:30.590Z,97083.28
2024-04-25T01:49:38.431Z,97086.09
2024-04-25T01:52:45.071Z,97081.75
2024-04-25T01:55:50.685Z,97073.16
2024-04-25T01:58:59.469Z,97078.00
2024-04-25T02:02:07.157Z,97079.81
2024-04-25T02:05:13.658Z,97078.28
2024-04-25T02:08:19.414Z,97071.94
2024-04-25T02:11:25.542Z,97085.69
2024-04-25T02:14:34.269Z,97080.84
2024-04-25T02:17:41.423Z,97077.81
2024-04-25T02:21:02.881Z,97080.31
2024-04-25T02:24:25.394Z,97071.72
2024-04-25T02:27:32.402Z,97066.59
2024-04-25T02:30:41.259Z,97076.22
2024-04-25T02:33:47.445Z,97076.47
2024-04-25T02:36:53.941Z,97077.00
2024-04-25T02:39:59.538Z,97075.97
2024-04-25T02:43:05.738Z,97076.25
2024-04-25T02:46:14.694Z,97078.47
2024-04-25T02:49:20.851Z,97085.06
2024-04-25T02:52:23.869Z,97072.09
2024-04-25T02:55:30.101Z,97074.69
2024-04-25T02:58:35.067Z,97065.03
2024-04-25T03:01:43.875Z,97070.81
2024-04-25T03:04:46.916Z,97066.78
2024-04-25T03:07:53.168Z,97070.81
2024-04-25T03:10:56.157Z,97064.50
2024-04-25T03:14:03.458Z,97062.16
2024-04-25T03:17:10.365Z,97068.72
2024-04-25T03:20:17.168Z,97070.50
2024-04-25T03:23:21.159Z,97075.47
2024-04-25T03:26:27.455Z,97066.63
2024-04-25T03:29:30.384Z,97080.59
2024-04-25T03:32:39.558Z,97072.75
2024-04-25T03:35:45.259Z,97066.34
2024-04-25T03:38:57.186Z,97060.03
2024-04-25T03:42:03.033Z,97057.88
2024-04-25T03:45:09.890Z,97057.34
2024-04-25T03:48:18.237Z,97052.84
2024-04-25T03:51:24.621Z,97067.59
2024-04-25T03:54:32.598Z,97068.22
2024-04-25T03:57:38.775Z,97071.31
2024-04-25T04:00:44.576Z,97076.44
2024-04-25T04:03:53.419Z,97080.81
2024-04-25T04:06:59.046Z,97065.56
2024-04-25T04:10:05.215Z,97070.31
2024-04-25T04:13:11.032Z,97078.06
2024-04-25T04:16:17.373Z,97075.25
2024-04-25T04:19:25.841Z,97070.34
2024-04-25T04:22:34.234Z,97060.50
2024-04-25T04:25:40.263Z,97069.59
2024-04-25T04:28:46.341Z,97081.28
2024-04-25T04:31:52.528Z,97073.94
2024-04-25T04:35:01.224Z,97078.34
2024-04-25T04:38:07.319Z,97087.50
2024-04-25T04:41:14.053Z,97098.34
2024-04-25T04:44:19.761Z,97095.34
2024-04-25T04:47:26.306Z,97099.59
2024-04-25T04:50:35.504Z,97092.00
2024-04-25T04:53:41.810Z,97100.59
2024-04-25T04:56:48.615Z,97100.75
2024-04-25T04:59:54.889Z,97109.75
2024-04-25T05:03:00.772Z,97095.75
2024-04-25T05:06:14.892Z,97113.19
2024-04-25T05:09:20.483Z,97109.97
2024-04-25T05:12:28.778Z,97110.34
2024-04-25T05:15:35.237Z,97108.19
2024-04-25T05:18:41.393Z,97110.81
2024-04-25T05:21:52.682Z,97109.72
2024-04-25T05:25:13.833Z,97119.63
2024-04-25T05:28:46.803Z,97117.56
2024-04-25T05:31:52.778Z,97119.63
2024-04-25T05:35:01.352Z,97129.34
2024-04-25T05:38:11.274Z,97127.13
2024-04-25T05:41:17.815Z,97130.25
2024-04-25T05:44:25.406Z,97122.75
2024-04-25T05:47:31.572Z,97121.75
2024-04-25T05:50:38.695Z,97128.50
2024-04-25T05:53:47.720Z,97125.28
2024-04-25T05:56:53.561Z,97113.72
2024-04-25T06:00:00.078Z,97117.22
2024-04-25T06:03:06.118Z,97117.25
2024-04-25T06:06:12.981Z,97111.47
2024-04-25T06:09:21.569Z,97110.84
2024-04-25T06:12:28.409Z,97112.19
2024-04-25T06:15:36.720Z,97118.31
2024-04-25T06:18:43.072Z,97116.78
2024-04-25T06:21:48.912Z,97118.06
2024-04-25T06:25:01.678Z,97111.28
2024-04-25T06:28:09.940Z,97123.69
2024-04-25T06:31:16.888Z,97116.16
2024-04-25T06:34:23.056Z,97122.19
2024-04-25T06:37:29.267Z,97118.88
2024-04-25T06:40:37.919Z,97119.38
2024-04-25T06:43:44.356Z,97116.28
2024-04-25T06:46:49.996Z,97124.94
2024-04-25T06:50:06.920Z,97127.63
2024-04-25T06:53:15.624Z,97131.75
2024-04-25T06:56:24.561Z,97123.59
2024-04-25T06:59:30.931Z,97138.06
2024-04-25T07:02:36.585Z,97137.75
2024-04-25T07:05:42.971Z,97131.56
2024-04-25T07:08:49.651Z,97133.47
2024-04-25T07:11:59.870Z,97129.69
2024-04-25T07:15:07.895Z,97138.03
2024-04-25T07:18:17.102Z,97141.69
2024-04-25T07:21:24.763Z,97141.25
2024-04-25T07:24:31.936Z,97152.44
2024-04-25T07:27:40.417Z,97149.00
2024-04-25T07:30:46.644Z,97156.09
2024-04-25T07:33:53.454Z,97149.88
2024-04-25T07:36:59.886Z,97147.84
2024-04-25T07:40:06.837Z,97152.81
2024-04-25T07:43:15.724Z,97142.97
2024-04-25T07:46:21.664Z,97143.53
2024-04-25T07:49:28.071Z,97144.16
2024-04-25T07:52:33.890Z,97143.34
2024-04-25T07:55:40.198Z,97140.50
2024-04-25T07:58:53.652Z,97140.16
2024-04-25T08:02:00.234Z,97144.00
2024-04-25T08:05:06.250Z,97151.41
2024-04-25T08:08:12.655Z,97157.22
2024-04-25T08:11:18.771Z,97158.09
2024-04-25T08:14:29.292Z,97155.16
2024-04-25T08:17:36.495Z,97155.00
2024-04-25T08:20:42.860Z,97153.13
2024-04-25T08:23:48.601Z,97165.34
2024-04-25T08:26:56.835Z,97160.31
2024-04-25T08:30:05.332Z,97153.94
2024-04-25T08:33:23.697Z,97166.16
2024-04-25T08:36:29.314Z,97163.72
2024-04-25T08:39:35.448Z,97156.72
2024-04-25T08:42:43.720Z,97163.09
2024-04-25T08:45:54.389Z,97168.69
2024-04-25T08:49:02.991Z,97170.78
2024-04-25T08:52:09.849Z,97167.59
2024-04-25T08:55:19.305Z,97168.78
2024-04-25T08:58:45.940Z,97170.72
2024-04-25T09:01:56.665Z,97176.63
2024-04-25T09:05:04.382Z,97169.38
2024-04-25T09:08:12.930Z,97174.31
2024-04-25T09:11:23.434Z,97173.22
2024-04-25T09:14:29.260Z,97176.69
2024-04-25T09:17:40.015Z,97166.28
2024-04-25T09:20:46.258Z,97172.44
2024-04-25T09:23:52.419Z,97169.69
2024-04-25T09:26:59.893Z,97168.38
2024-04-25T09:30:13.576Z,97163.38
2024-04-25T09:33:25.653Z,97175.16
2024-04-25T09:36:33.014Z,97169.69
2024-04-25T09:40:54.955Z,97181.78
2024-04-25T09:44:01.498Z,97178.50
2024-04-25T09:47:13.185Z,97182.34
2024-04-25T09:50:28.265Z,97183.41
2024-04-25T09:53:45.692Z,97190.16
2024-04-25T09:56:53.956Z,97176.38
2024-04-25T10:00:06.676Z,97171.94
2024-04-25T10:03:14.572Z,97172.59
2024-04-25T10:06:23.175Z,97163.63
2024-04-25T10:09:31.491Z,97169.53
2024-04-25T10:12:37.317Z,97166.53
2024-04-25T10:15:44.391Z,97155.97
2024-04-25T10:18:53.709Z,97162.44
2024-04-25T10:22:07.388Z,97157.41
2024-04-25T10:25:22.458Z,97155.38
2024-04-25T10:28:45.604Z,97158.44
2024-04-25T10:31:51.357Z,97155.84
2024-04-25T10:35:00.037Z,97152.56
2024-04-25T10:38:08.821Z,97157.91
2024-04-25T10:41:15.060Z,97157.91
2024-04-25T10:44:21.073Z,97157.16
2024-04-25T10:47:27.407Z,97158.19
2024-04-25T10:50:33.583Z,97164.38
2024-04-25T10:53:42.780Z,97152.03
2024-04-25T10:56:48.694Z,97160.34
2024-04-25T11:00:01.846Z,97156.63
2024-04-25T11:03:13.304Z,97153.63
2024-04-25T11:06:19.628Z,97158.06
2024-04-25T11:09:28.589Z,97154.78
2024-04-25T11:12:36.085Z,97150.50
2024-04-25T11:15:44.169Z,97148.75
2024-04-25T11:18:57.981Z,97152.31
2024-04-25T11:22:08.600Z,97146.94
2024-04-25T11:25:23.288Z,97144.66
2024-04-25T11:28:29.485Z,97138.56
2024-04-25T11:31:38.314Z,97137.81
2024-04-25T11:34:44.154Z,97147.22
2024-04-25T11:37:50.371Z,97143.41
2024-04-25T11:40:59.446Z,97139.84
2024-04-25T11:44:08.545Z,97137.78
2024-04-25T11:47:14.984Z,97131.44
2024-04-25T11:50:21.346Z,97126.09
2024-04-25T11:53:27.154Z,97136.78
2024-04-25T11:56:36.522Z,97138.31
2024-04-25T11:59:43.771Z,97131.63
2024-04-25T12:02:50.126Z,97125.66
2024-04-25T12:05:55.946Z,97120.66
2024-04-25T12:09:02.219Z,97130.59
2024-04-25T12:12:11.193Z,97131.69
2024-04-25T12:15:20.126Z,97127.28
2024-04-25T12:18:31.918Z,97128.09
2024-04-25T12:21:44.048Z,97126.09
2024-04-25T12:24:56.102Z,97117.44
2024-04-25T12:28:10.111Z,97115.16
2024-04-25T12:31:40.921Z,97116.66
2024-04-25T12:34:47.757Z,97112.84
2024-04-25T12:37:55.684Z,97116.69
2024-04-25T12:41:03.324Z,97112.81
2024-04-25T12:44:12.818Z,97112.84
2024-04-25T12:47:19.057Z,97112.34
2024-04-25T12:50:24.870Z,97107.25
2024-04-25T12:53:31.070Z,97109.00
2024-04-25T12:56:36.958Z,97109.19
2024-04-25T12:59:46.023Z,97098.53
2024-04-25T13:02:54.594Z,97100.03
2024-04-25T13:06:03.818Z,97095.75
2024-04-25T13:09:09.493Z,97097.06
2024-04-25T13:12:16.085Z,97083.56
2024-04-25T13:15:26.512Z,97084.84
2024-04-25T13:18:34.133Z,97084.34
2024-04-25T13:21:42.795Z,97085.09
2024-04-25T13:24:49.466Z,97074.16
2024-04-25T13:27:55.773Z,97084.34
2024-04-25T13:31:06.136Z,97080.53
2024-04-25T13:34:11.796Z,97070.84
2024-04-25T13:37:17.976Z,97073.66
2024-04-25T13:40:23.543Z,97071.34
2024-04-25T13:43:29.719Z,97077.47
2024-04-25T13:46:37.987Z,97080.00
2024-04-25T13:49:44.895Z,97081.03
2024-04-25T13:52:50.792Z,97076.97
2024-04-25T13:56:01.424Z,97072.38
2024-04-25T13:59:07.251Z,97063.72
2024-04-25T14:02:18.092Z,97066.53
2024-04-25T14:05:23.884Z,97071.34
2024-04-25T14:08:30.960Z,97073.13
2024-04-25T14:11:37.196Z,97072.88
2024-04-25T14:14:44.806Z,97076.97
2024-04-25T14:17:54.064Z,97091.19
2024-04-25T14:21:00.402Z,97083.56
2024-04-25T14:24:06.383Z,97084.09
2024-04-25T14:27:28.226Z,97089.44
2024-04-25T14:30:33.836Z,97094.25
2024-04-25T14:33:43.239Z,97094.00
2024-04-25T14:36:49.756Z,97098.06
2024-04-25T14:39:56.142Z,97090.19
2024-04-25T14:43:01.869Z,97094.00
2024-04-25T14:46:11.335Z,97095.25
2024-04-25T14:49:22.037Z,97090.91
2024-04-25T14:52:28.118Z,97094.97
2024-04-25T14:55:34.068Z,97095.44
2024-04-25T14:58:40.121Z,97092.94
2024-04-25T15:01:48.375Z,97088.84
2024-04-25T15:04:58.273Z,97090.41
2024-04-25T15:08:04.257Z,97102.91
2024-04-25T15:11:14.957Z,97103.66
2024-04-25T15:14:20.688Z,97098.34
2024-04-25T15:17:26.877Z,97104.47
2024-04-25T15:20:35.458Z,97101.91
2024-04-25T15:23:43.369Z,97094.50
2024-04-25T15:26:49.717Z,97099.34
2024-04-25T15:30:07.622Z,97095.03
2024-04-25T15:33:13.813Z,97094.00
2024-04-25T15:36:22.402Z,97097.06
2024-04-25T15:39:28.547Z,97089.41
2024-04-25T15:42:34.267Z,97079.72
2024-04-25T15:45:40.475Z,97081.47
2024-04-25T15:48:46.419Z,97080.25
2024-04-25T15:51:57.667Z,97086.66
2024-04-25T15:55:04.115Z,97099.84
2024-04-25T15:58:32.232Z,97100.16
2024-04-25T16:02:00.389Z,97098.19
2024-04-25T16:05:08.858Z,97101.03
2024-04-25T16:08:17.766Z,97096.50
2024-04-25T16:11:28.963Z,97102.88
2024-04-25T16:14:34.927Z,97102.66
2024-04-25T16:17:42.723Z,97111.59
2024-04-25T16:20:48.605Z,97115.41
2024-04-25T16:23:57.780Z,97106.47
2024-04-25T16:27:09.155Z,97109.28
2024-04-25T16:30:16.577Z,97112.84
2024-04-25T16:33:22.803Z,97114.13
2024-04-25T16:36:31.941Z,97110.56
2024-04-25T16:39:43.532Z,97109.78
2024-04-25T16:43:42.041Z,97114.38
2024-04-25T16:46:48.299Z,97115.88
2024-04-25T16:49:54.094Z,97118.94
2024-04-25T16:53:00.524Z,97126.31
2024-04-25T16:56:11.052Z,97126.59
2024-04-25T16:59:17.410Z,97136.56
2024-04-25T17:02:23.831Z,97144.97
2024-04-25T17:05:30.538Z,97151.09
2024-04-25T17:08:36.639Z,97150.31
2024-04-25T17:11:45.156Z,97147.75
2024-04-25T17:14:53.359Z,97147.72
2024-04-25T17:17:59.305Z,97156.13
2024-04-25T17:21:13.062Z,97158.44
2024-04-25T17:24:22.247Z,97168.88
2024-04-25T17:27:36.637Z,97171.19
2024-04-25T17:30:42.379Z,97184.66
2024-04-25T17:33:48.583Z,97181.84
2024-04-25T17:36:54.456Z,97175.25
2024-04-25T17:40:00.710Z,97189.00
2024-04-25T17:43:09.390Z,97192.53
2024-04-25T17:46:15.720Z,97199.63
2024-04-25T17:49:23.246Z,97193.53
2024-04-25T17:52:29.343Z,97206.47
2024-04-25T17:55:35.290Z,97207.72
2024-04-25T17:58:44.361Z,97211.78
2024-04-25T18:01:50.977Z,97227.28
2024-04-25T18:05:00.546Z,97229.28
2024-04-25T18:08:08.494Z,97236.63
2024-04-25T18:11:14.684Z,97232.25
2024-04-25T18:14:23.123Z,97254.31
2024-04-25T18:17:29.646Z,97248.97
2024-04-25T18:20:36.450Z,97252.44
2024-04-25T18:23:42.774Z,97247.91
2024-04-25T18:26:49.306Z,97237.63
2024-04-25T18:29:58.195Z,97249.03
2024-04-25T18:33:06.662Z,97253.72
2024-04-25T18:36:46.853Z,97268.84
2024-04-25T18:39:58.666Z,97269.47
2024-04-25T18:43:07.469Z,97282.28
2024-04-25T18:46:18.238Z,97290.16
2024-04-25T18:49:25.211Z,97290.94
2024-04-25T18:52:31.249Z,97297.94
2024-04-25T18:55:41.054Z,97311.00
2024-04-25T18:58:46.905Z,97314.97
2024-04-25T19:02:00.282Z,97320.81
2024-04-25T19:05:06.121Z,97319.28
2024-04-25T19:08:13.879Z,97322.41
2024-04-25T19:11:19.885Z,97333.72
2024-04-25T19:14:26.902Z,97344.69
2024-04-25T19:17:37.896Z,97343.50
2024-04-25T19:20:48.382Z,97348.66
2024-04-25T19:23:55.686Z,97346.91
2024-04-25T19:27:02.717Z,97342.88
2024-04-25T19:30:14.001Z,97352.13
2024-04-25T19:33:23.951Z,97357.50
2024-04-25T19:36:30.389Z,97358.34
2024-04-25T19:39:42.063Z,97352.50
2024-04-25T19:42:48.734Z,97358.84
2024-04-25T19:45:54.558Z,97354.41
2024-04-25T19:49:04.125Z,97367.53
2024-04-25T19:52:17.423Z,97371.41
2024-04-25T19:55:26.353Z,97377.13
2024-04-25T19:58:32.194Z,97379.59
2024-04-25T20:01:38.988Z,97383.88
2024-04-25T20:04:55.939Z,97387.06
2024-04-25T20:08:04.278Z,97389.09
2024-04-25T20:11:10.502Z,97396.47
2024-04-25T20:14:17.172Z,97401.72
2024-04-25T20:17:43.360Z,97405.00
2024-04-25T20:21:04.271Z,97400.66
2024-04-25T20:24:10.759Z,97397.34
2024-04-25T20:27:23.022Z,97398.63
2024-04-25T20:30:29.063Z,97396.78
2024-04-25T20:33:35.034Z,97395.84
2024-04-25T20:36:47.387Z,97403.34
2024-04-25T20:39:58.945Z,97403.13
2024-04-25T20:43:05.243Z,97410.59
2024-04-25T20:46:15.361Z,97407.69
2024-04-25T20:49:26.920Z,97404.50
2024-04-25T20:52:36.115Z,97407.00
2024-04-25T20:55:41.912Z,97415.28
2024-04-25T20:58:48.385Z,97415.69
2024-04-25T21:01:54.226Z,97416.06
2024-04-25T21:05:00.449Z,97414.03
2024-04-25T21:08:10.753Z,97424.31
2024-04-25T21:11:17.063Z,97419.78
2024-04-25T21:14:24.369Z,97426.22
2024-04-25T21:17:30.821Z,97428.31
2024-04-25T21:20:47.517Z,97418.72
2024-04-25T21:23:57.024Z,97422.94
2024-04-25T21:27:03.014Z,97425.50
2024-04-25T21:30:10.700Z,97430.78
2024-04-25T21:33:16.911Z,97425.47
2024-04-25T21:36:23.198Z,97425.75
2024-04-25T21:39:31.925Z,97419.13
2024-04-25T21:42:38.311Z,97420.16
2024-04-25T21:45:44.211Z,97420.16
2024-04-25T21:48:52.723Z,97427.09
2024-04-25T21:52:00.488Z,97429.13
2024-04-25T21:55:11.778Z,97429.50
2024-04-25T21:58:18.340Z,97437.38
2024-04-25T22:01:26.350Z,97437.97
2024-04-25T22:05:27.885Z,97435.47
2024-04-25T22:08:34.370Z,97440.75
2024-04-25T22:11:43.192Z,97433.47
2024-04-25T22:14:49.567Z,97441.16
2024-04-25T22:17:55.589Z,97434.50
2024-04-25T22:21:02.047Z,97435.75
2024-04-25T22:24:09.610Z,97436.53
2024-04-25T22:27:19.569Z,97442.56
2024-04-25T22:30:25.351Z,97445.16
2024-04-25T22:33:31.905Z,97435.28
2024-04-25T22:36:38.253Z,97443.94
2024-04-25T22:39:44.357Z,97434.22
2024-04-25T22:42:53.326Z,97442.38
2024-04-25T22:45:59.270Z,97442.78
2024-04-25T22:49:06.170Z,97451.25
2024-04-25T22:52:13.418Z,97447.59
2024-04-25T22:55:19.829Z,97452.78
2024-04-25T22:58:55.909Z,97459.31
2024-04-25T23:02:04.273Z,97453.72
2024-04-25T23:05:10.984Z,97455.38
2024-04-25T23:08:17.527Z,97450.66
2024-04-25T23:11:23.409Z,97459.59
2024-04-25T23:14:32.594Z,97454.88
2024-04-25T23:17:38.330Z,97459.81
2024-04-25T23:20:44.646Z,97447.44
2024-04-25T23:23:50.534Z,97459.88
2024-04-25T23:26:56.778Z,97455.81
2024-04-25T23:30:05.586Z,97457.78
2024-04-25T23:33:12.199Z,97454.13
2024-04-25T23:36:18.726Z,97462.13
2024-04-25T23:39:25.173Z,97446.38
2024-04-25T23:42:31.078Z,97453.47
2024-04-25T23:45:39.993Z,97451.31
2024-04-25T23:48:45.766Z,97453.03
2024-04-25T23:51:52.108Z,97442.78
2024-04-25T23:54:58.146Z,97442.41
2024-04-25T23:58:04.186Z,97440.94
